首页
METAR-TAF:

METAR-TAF

机场 :

開羅國際機場

开罗, 埃及

纬度: 30-08N, 经度: 031-24E, 海拔: 64米

当前天气观测

该预报发布于20分钟前的08:30 UTC
风速8节,风向南转西南
温度 17°C
湿度 39%
气压 1023 hPa
能見度: 2000
散云层高于2500英尺
散云层高于7000英尺

METAR: HECA 170830Z 21008KT 2000 HZ SCT025 SCT070 17/03 Q1023 NOSIG

时间: 10:50 (08:50 UTC)

预报

该预报发布于3小时和50分钟前的05:00 UTC
预报有效从17日的 06点(UTC)到 18日的 12点(UTC)
风速8节,风向西南
能见度10公里或以上
散云层高于2500英尺
短暂存在
从 17日的 06点(UTC)到 17日的 09点(UTC)
能見度: 4000
短暂存在
从 17日的 06点(UTC)到 17日的 08点(UTC)
风速3节,风向多变
能見度: 2000
几率 40%
从 17日的 09点(UTC)到 17日的 16点(UTC)
风速12节,风向西转西南
能見度: 4000
扬沙
短暂存在
从 17日的 20点(UTC)到 18日的 09点(UTC)
能見度: 4000
短暂存在
从 18日的 02点(UTC)到 18日的 08点(UTC)
风速3节,风向多变
能見度: 2000

TAF: HECA 170500Z 1706/1812 22008KT 9999 SCT025 TEMPO 1706/1709 4000 HZ NSC TEMPO 1706/1708 VRB03KT 2000 PROB40 1709/1716 24012KT 4000 SA TEMPO 1720/1809 4000 HZ NSC TEMPO 1802/1808 VRB03KT 2000

超过4000个机场的气象观测和天气预报(METAR&TAF报告)。

可查询的气象台以黄色和红色小点在地图上表示。

将鼠标移到小点上方,可查看气象台名称。

然后点击查看天气观测和预报。

如需切换地图:点击带黑十字的绿色按钮放大地图;点击带横线的绿色按钮缩小地图;或者点击绿色箭头查看邻近地区的地图。


METAR-TAF: